Airfield :
LOGIN :

Register | Disclaimer

   EN    FR    IT 

 










Legend :    VFR   Marginal VFR   IFR   Intensive IFR   Very Intensive IFR
Visi :
Ceiling :
>= 8 km
>= 3000ft
5 to 8 km
1000 to 3000 ft
1500m to 5 km
500 to 1000 ft
800 to 1500m
200 to 500 ft
< 800m
< 200 ft
Symbols :   Thunderstorms  Fog  Heavy snow  Heavy precipitations  Wind > 20 kt
SIGMETs :     Misc.  Thunderstorms  Icing  Turbulence  Mountain Waves  Volcanic Ashes






- Airport Elevation : 1682 ft
- IATA code : VIT


LEVT - Vitoria Gasteiz

CURRENT METAR :
  • 071000Z 29001KT CAVOK 19/13 Q1024

EXPIRED METARs :
  • 070930Z 23003KT 170V310 CAVOK 18/13 Q1024
  • 070900Z 23003KT 190V280 CAVOK 15/14 Q1024
  • 070830Z 00000KT CAVOK 13/13 Q1024
  • 070800Z 00000KT CAVOK 11/11 Q1024
  • 070730Z 00000KT 8000 NSC 10/10 Q1024
  • 070700Z 00000KT 4000 R04/0900D R22/P2000 BCFG BR FEW002 08/08 Q1024

TAF TAF LEVT
Valid from the 07 at 06:00 until the 08 at 06:00 UTC


070500Z 0706/0806 12005KT 9999 FEW020 TX26/0714Z TN10/0706Z
TEMPO 0706/0709 3000 BR BKN005
PROB40
TEMPO 0706/0708 0350 FG VV001
TEMPO 0715/0721 02010KT
TEMPO 0720/0806 3000 BR BKN005
PROB40
TEMPO 0723/0806 0800 DZ FG VV001



MET'MAP, your aeronautical weather chart ! - Copyright ORBIFLY December 2007 - Disclaimer

ORBIFLY MET'MAP TEAM :

Programming & Development : Alexandra Zaïnal
Original concept : Baudouin d'Aumeries
Technical & hardware support : Manuel Goepfert
Assistance : Marc-Olivier Méhu




SOURCES & CREDITS :

   NOAA